sensor_id;sensor_type;location;lat;lon;timestamp;temperature;humidity
16116;DHT22;8162;47.104;15.432;2023-03-01T00:02:35;1.40;69.00
16116;DHT22;8162;47.104;15.432;2023-03-01T00:05:35;1.40;69.30
16116;DHT22;8162;47.104;15.432;2023-03-01T00:08:36;1.40;69.20
16116;DHT22;8162;47.104;15.432;2023-03-01T00:11:37;1.40;68.70
16116;DHT22;8162;47.104;15.432;2023-03-01T00:14:38;1.40;68.80
16116;DHT22;8162;47.104;15.432;2023-03-01T00:17:39;1.40;68.90
16116;DHT22;8162;47.104;15.432;2023-03-01T00:20:39;1.40;69.20
16116;DHT22;8162;47.104;15.432;2023-03-01T00:23:41;1.40;69.10
16116;DHT22;8162;47.104;15.432;2023-03-01T00:26:41;1.40;69.40
16116;DHT22;8162;47.104;15.432;2023-03-01T00:29:42;1.40;69.50
16116;DHT22;8162;47.104;15.432;2023-03-01T00:32:43;1.40;70.00
16116;DHT22;8162;47.104;15.432;2023-03-01T00:35:43;1.40;70.10
16116;DHT22;8162;47.104;15.432;2023-03-01T00:38:45;1.40;70.10
16116;DHT22;8162;47.104;15.432;2023-03-01T00:41:46;1.40;69.90
16116;DHT22;8162;47.104;15.432;2023-03-01T00:44:46;1.40;69.90
16116;DHT22;8162;47.104;15.432;2023-03-01T00:47:48;1.40;70.10
16116;DHT22;8162;47.104;15.432;2023-03-01T00:50:49;1.40;70.30
16116;DHT22;8162;47.104;15.432;2023-03-01T00:53:51;1.40;70.10
16116;DHT22;8162;47.104;15.432;2023-03-01T00:56:52;1.40;69.90
16116;DHT22;8162;47.104;15.432;2023-03-01T00:59:53;1.40;69.20
16116;DHT22;8162;47.104;15.432;2023-03-01T01:02:54;1.40;69.10
16116;DHT22;8162;47.104;15.432;2023-03-01T01:05:55;1.40;69.50
16116;DHT22;8162;47.104;15.432;2023-03-01T01:08:56;1.40;70.00
16116;DHT22;8162;47.104;15.432;2023-03-01T01:11:57;1.50;70.30
16116;DHT22;8162;47.104;15.432;2023-03-01T01:14:57;1.50;70.00
16116;DHT22;8162;47.104;15.432;2023-03-01T01:17:58;1.40;69.80
16116;DHT22;8162;47.104;15.432;2023-03-01T01:21:04;1.50;69.40
16116;DHT22;8162;47.104;15.432;2023-03-01T01:24:05;1.50;69.10
16116;DHT22;8162;47.104;15.432;2023-03-01T01:27:06;1.50;68.90
16116;DHT22;8162;47.104;15.432;2023-03-01T01:30:08;1.50;68.80
16116;DHT22;8162;47.104;15.432;2023-03-01T01:33:08;1.50;69.30
16116;DHT22;8162;47.104;15.432;2023-03-01T01:36:09;1.50;69.80
16116;DHT22;8162;47.104;15.432;2023-03-01T01:39:10;1.50;69.90
16116;DHT22;8162;47.104;15.432;2023-03-01T01:42:17;1.50;69.70
16116;DHT22;8162;47.104;15.432;2023-03-01T01:45:31;1.60;69.70
16116;DHT22;8162;47.104;15.432;2023-03-01T01:48:46;1.60;69.80
16116;DHT22;8162;47.104;15.432;2023-03-01T01:51:51;1.50;69.90
16116;DHT22;8162;47.104;15.432;2023-03-01T01:55:02;1.60;69.90
16116;DHT22;8162;47.104;15.432;2023-03-01T01:58:05;1.60;69.70
16116;DHT22;8162;47.104;15.432;2023-03-01T02:01:07;1.60;70.00
16116;DHT22;8162;47.104;15.432;2023-03-01T02:04:08;1.50;70.30
16116;DHT22;8162;47.104;15.432;2023-03-01T02:07:18;1.50;70.50
16116;DHT22;8162;47.104;15.432;2023-03-01T02:10:21;1.50;70.30
16116;DHT22;8162;47.104;15.432;2023-03-01T02:13:23;1.60;70.20
16116;DHT22;8162;47.104;15.432;2023-03-01T02:16:25;1.60;70.20
16116;DHT22;8162;47.104;15.432;2023-03-01T02:19:42;1.60;70.00
16116;DHT22;8162;47.104;15.432;2023-03-01T02:22:45;1.60;70.20
16116;DHT22;8162;47.104;15.432;2023-03-01T02:29:04;1.50;69.70
16116;DHT22;8162;47.104;15.432;2023-03-01T02:32:06;1.50;69.70
16116;DHT22;8162;47.104;15.432;2023-03-01T02:35:09;1.60;69.80
16116;DHT22;8162;47.104;15.432;2023-03-01T02:38:12;1.60;69.40
16116;DHT22;8162;47.104;15.432;2023-03-01T02:41:16;1.60;69.00
16116;DHT22;8162;47.104;15.432;2023-03-01T02:44:18;1.60;68.80
16116;DHT22;8162;47.104;15.432;2023-03-01T02:47:19;1.50;68.80
16116;DHT22;8162;47.104;15.432;2023-03-01T02:51:24;1.50;68.70
16116;DHT22;8162;47.104;15.432;2023-03-01T02:54:10;1.50;68.80
16116;DHT22;8162;47.104;15.432;2023-03-01T02:57:13;1.50;69.00
16116;DHT22;8162;47.104;15.432;2023-03-01T03:00:39;1.50;68.80
16116;DHT22;8162;47.104;15.432;2023-03-01T03:03:42;1.50;69.00
16116;DHT22;8162;47.104;15.432;2023-03-01T03:06:44;1.50;69.20
16116;DHT22;8162;47.104;15.432;2023-03-01T03:09:45;1.60;69.30
16116;DHT22;8162;47.104;15.432;2023-03-01T03:12:54;1.60;70.00
16116;DHT22;8162;47.104;15.432;2023-03-01T03:15:56;1.60;69.80
16116;DHT22;8162;47.104;15.432;2023-03-01T03:18:56;1.70;69.80
16116;DHT22;8162;47.104;15.432;2023-03-01T03:22:05;1.60;70.00
16116;DHT22;8162;47.104;15.432;2023-03-01T03:25:07;1.60;70.20
16116;DHT22;8162;47.104;15.432;2023-03-01T03:28:12;1.60;70.20
16116;DHT22;8162;47.104;15.432;2023-03-01T03:31:12;1.60;70.20
16116;DHT22;8162;47.104;15.432;2023-03-01T03:34:13;1.60;70.40
16116;DHT22;8162;47.104;15.432;2023-03-01T03:37:18;1.60;70.40
16116;DHT22;8162;47.104;15.432;2023-03-01T03:40:40;1.60;70.60
16116;DHT22;8162;47.104;15.432;2023-03-01T03:43:42;1.60;70.70
16116;DHT22;8162;47.104;15.432;2023-03-01T03:46:43;1.70;70.90
16116;DHT22;8162;47.104;15.432;2023-03-01T03:49:44;1.70;71.00
16116;DHT22;8162;47.104;15.432;2023-03-01T03:52:45;1.70;71.00
16116;DHT22;8162;47.104;15.432;2023-03-01T03:55:46;1.70;70.50
16116;DHT22;8162;47.104;15.432;2023-03-01T03:58:49;1.70;70.50
16116;DHT22;8162;47.104;15.432;2023-03-01T04:01:50;1.60;70.90
16116;DHT22;8162;47.104;15.432;2023-03-01T04:07:51;1.60;71.80
16116;DHT22;8162;47.104;15.432;2023-03-01T04:11:03;1.60;71.70
16116;DHT22;8162;47.104;15.432;2023-03-01T04:14:24;1.60;71.80
16116;DHT22;8162;47.104;15.432;2023-03-01T04:17:24;1.60;71.60
16116;DHT22;8162;47.104;15.432;2023-03-01T04:20:28;1.60;70.70
16116;DHT22;8162;47.104;15.432;2023-03-01T04:23:28;1.50;70.50
16116;DHT22;8162;47.104;15.432;2023-03-01T04:26:29;1.50;70.50
16116;DHT22;8162;47.104;15.432;2023-03-01T04:29:30;1.60;70.50
16116;DHT22;8162;47.104;15.432;2023-03-01T04:32:31;1.60;70.50
16116;DHT22;8162;47.104;15.432;2023-03-01T04:35:32;1.60;70.50
16116;DHT22;8162;47.104;15.432;2023-03-01T04:38:33;1.60;70.50
16116;DHT22;8162;47.104;15.432;2023-03-01T04:41:34;1.60;70.40
16116;DHT22;8162;47.104;15.432;2023-03-01T04:44:34;1.60;70.30
16116;DHT22;8162;47.104;15.432;2023-03-01T04:47:35;1.60;69.80
16116;DHT22;8162;47.104;15.432;2023-03-01T04:50:38;1.60;69.70
16116;DHT22;8162;47.104;15.432;2023-03-01T04:53:40;1.60;69.70
16116;DHT22;8162;47.104;15.432;2023-03-01T04:56:41;1.60;70.10
16116;DHT22;8162;47.104;15.432;2023-03-01T04:59:41;1.60;70.40
16116;DHT22;8162;47.104;15.432;2023-03-01T05:02:42;1.60;70.50
16116;DHT22;8162;47.104;15.432;2023-03-01T05:05:45;1.60;70.50
16116;DHT22;8162;47.104;15.432;2023-03-01T05:08:46;1.50;70.40
16116;DHT22;8162;47.104;15.432;2023-03-01T05:11:47;1.50;70.40
16116;DHT22;8162;47.104;15.432;2023-03-01T05:14:47;1.50;70.00
16116;DHT22;8162;47.104;15.432;2023-03-01T05:17:49;1.50;69.80
16116;DHT22;8162;47.104;15.432;2023-03-01T05:20:49;1.50;70.50
16116;DHT22;8162;47.104;15.432;2023-03-01T05:23:50;1.50;70.50
16116;DHT22;8162;47.104;15.432;2023-03-01T05:26:51;1.60;70.50
16116;DHT22;8162;47.104;15.432;2023-03-01T05:29:55;1.70;69.80
16116;DHT22;8162;47.104;15.432;2023-03-01T05:32:56;1.60;70.00
16116;DHT22;8162;47.104;15.432;2023-03-01T05:35:59;1.60;70.20
16116;DHT22;8162;47.104;15.432;2023-03-01T05:39:00;1.50;70.40
16116;DHT22;8162;47.104;15.432;2023-03-01T05:42:01;1.60;69.90
16116;DHT22;8162;47.104;15.432;2023-03-01T05:45:02;1.60;69.50
16116;DHT22;8162;47.104;15.432;2023-03-01T05:48:03;1.60;69.90
16116;DHT22;8162;47.104;15.432;2023-03-01T05:51:05;1.60;70.00
16116;DHT22;8162;47.104;15.432;2023-03-01T05:54:06;1.60;70.40
16116;DHT22;8162;47.104;15.432;2023-03-01T05:57:07;1.60;70.70
16116;DHT22;8162;47.104;15.432;2023-03-01T06:00:09;1.60;70.80
16116;DHT22;8162;47.104;15.432;2023-03-01T06:03:12;1.60;70.90
16116;DHT22;8162;47.104;15.432;2023-03-01T06:06:13;1.60;70.80
16116;DHT22;8162;47.104;15.432;2023-03-01T06:09:14;1.70;70.50
16116;DHT22;8162;47.104;15.432;2023-03-01T06:12:14;1.70;70.60
16116;DHT22;8162;47.104;15.432;2023-03-01T06:15:16;1.70;70.50
16116;DHT22;8162;47.104;15.432;2023-03-01T06:18:17;1.70;70.80
16116;DHT22;8162;47.104;15.432;2023-03-01T06:21:18;1.80;71.10
16116;DHT22;8162;47.104;15.432;2023-03-01T06:24:18;1.80;71.00
16116;DHT22;8162;47.104;15.432;2023-03-01T06:27:19;1.90;70.90
16116;DHT22;8162;47.104;15.432;2023-03-01T06:30:21;1.90;70.50
16116;DHT22;8162;47.104;15.432;2023-03-01T06:33:22;1.90;69.90
16116;DHT22;8162;47.104;15.432;2023-03-01T06:36:24;1.90;69.90
16116;DHT22;8162;47.104;15.432;2023-03-01T06:39:27;1.90;70.10
16116;DHT22;8162;47.104;15.432;2023-03-01T06:42:28;1.90;69.40
16116;DHT22;8162;47.104;15.432;2023-03-01T06:45:29;2.00;69.90
16116;DHT22;8162;47.104;15.432;2023-03-01T06:48:29;2.10;70.30
16116;DHT22;8162;47.104;15.432;2023-03-01T06:51:30;2.10;70.20
16116;DHT22;8162;47.104;15.432;2023-03-01T06:54:31;2.20;70.30
16116;DHT22;8162;47.104;15.432;2023-03-01T06:57:32;2.30;69.60
16116;DHT22;8162;47.104;15.432;2023-03-01T07:00:32;2.30;69.20
16116;DHT22;8162;47.104;15.432;2023-03-01T07:03:33;2.30;69.00
16116;DHT22;8162;47.104;15.432;2023-03-01T07:06:34;2.30;68.90
16116;DHT22;8162;47.104;15.432;2023-03-01T07:09:35;2.40;68.10
16116;DHT22;8162;47.104;15.432;2023-03-01T07:12:35;2.40;67.80
16116;DHT22;8162;47.104;15.432;2023-03-01T07:15:36;2.40;67.30
16116;DHT22;8162;47.104;15.432;2023-03-01T07:18:37;2.50;67.70
16116;DHT22;8162;47.104;15.432;2023-03-01T07:21:37;2.50;68.10
16116;DHT22;8162;47.104;15.432;2023-03-01T07:24:41;2.50;68.30
16116;DHT22;8162;47.104;15.432;2023-03-01T07:27:42;2.50;68.20
16116;DHT22;8162;47.104;15.432;2023-03-01T07:30:43;2.50;67.70
16116;DHT22;8162;47.104;15.432;2023-03-01T07:33:44;2.50;66.80
16116;DHT22;8162;47.104;15.432;2023-03-01T07:36:44;2.60;65.40
16116;DHT22;8162;47.104;15.432;2023-03-01T07:39:45;2.70;64.80
16116;DHT22;8162;47.104;15.432;2023-03-01T07:42:46;2.70;65.30
16116;DHT22;8162;47.104;15.432;2023-03-01T07:45:47;2.70;65.80
16116;DHT22;8162;47.104;15.432;2023-03-01T07:48:47;2.80;65.60
16116;DHT22;8162;47.104;15.432;2023-03-01T07:51:48;2.90;65.50
16116;DHT22;8162;47.104;15.432;2023-03-01T07:54:49;3.00;65.00
16116;DHT22;8162;47.104;15.432;2023-03-01T07:57:49;3.00;65.00
16116;DHT22;8162;47.104;15.432;2023-03-01T08:00:50;3.10;65.10
16116;DHT22;8162;47.104;15.432;2023-03-01T08:03:51;3.10;66.00
16116;DHT22;8162;47.104;15.432;2023-03-01T08:06:52;3.10;67.10
16116;DHT22;8162;47.104;15.432;2023-03-01T08:09:53;3.10;67.30
16116;DHT22;8162;47.104;15.432;2023-03-01T08:12:54;3.10;65.70
16116;DHT22;8162;47.104;15.432;2023-03-01T08:15:59;3.10;66.50
16116;DHT22;8162;47.104;15.432;2023-03-01T08:19:08;3.10;66.70
16116;DHT22;8162;47.104;15.432;2023-03-01T08:22:09;3.20;65.80
16116;DHT22;8162;47.104;15.432;2023-03-01T08:25:09;3.30;65.70
16116;DHT22;8162;47.104;15.432;2023-03-01T08:31:19;3.30;65.30
16116;DHT22;8162;47.104;15.432;2023-03-01T08:34:20;3.50;63.40
16116;DHT22;8162;47.104;15.432;2023-03-01T08:37:21;3.50;62.50
16116;DHT22;8162;47.104;15.432;2023-03-01T08:43:23;3.60;62.10
16116;DHT22;8162;47.104;15.432;2023-03-01T08:46:30;3.80;59.60
16116;DHT22;8162;47.104;15.432;2023-03-01T08:49:31;4.00;58.40
16116;DHT22;8162;47.104;15.432;2023-03-01T08:52:33;4.00;58.50
16116;DHT22;8162;47.104;15.432;2023-03-01T08:55:34;3.90;58.50
16116;DHT22;8162;47.104;15.432;2023-03-01T08:58:35;3.90;58.40
16116;DHT22;8162;47.104;15.432;2023-03-01T09:01:36;4.00;58.90
16116;DHT22;8162;47.104;15.432;2023-03-01T09:04:37;3.90;58.70
16116;DHT22;8162;47.104;15.432;2023-03-01T09:07:38;4.00;58.80
16116;DHT22;8162;47.104;15.432;2023-03-01T09:10:38;4.10;58.90
16116;DHT22;8162;47.104;15.432;2023-03-01T09:13:39;4.20;59.00
16116;DHT22;8162;47.104;15.432;2023-03-01T09:16:40;4.30;58.70
16116;DHT22;8162;47.104;15.432;2023-03-01T09:19:41;4.40;58.20
16116;DHT22;8162;47.104;15.432;2023-03-01T09:22:42;4.40;58.40
16116;DHT22;8162;47.104;15.432;2023-03-01T09:25:42;4.50;58.30
16116;DHT22;8162;47.104;15.432;2023-03-01T09:28:43;4.40;58.60
16116;DHT22;8162;47.104;15.432;2023-03-01T09:31:48;4.40;58.60
16116;DHT22;8162;47.104;15.432;2023-03-01T09:34:49;4.50;58.90
16116;DHT22;8162;47.104;15.432;2023-03-01T09:38:04;4.50;59.40
16116;DHT22;8162;47.104;15.432;2023-03-01T09:47:29;4.40;57.90
16116;DHT22;8162;47.104;15.432;2023-03-01T09:50:38;4.40;57.90
16116;DHT22;8162;47.104;15.432;2023-03-01T09:53:39;4.20;59.00
16116;DHT22;8162;47.104;15.432;2023-03-01T09:56:46;4.20;59.10
16116;DHT22;8162;47.104;15.432;2023-03-01T10:03:28;4.30;58.30
16116;DHT22;8162;47.104;15.432;2023-03-01T10:06:31;4.40;58.10
16116;DHT22;8162;47.104;15.432;2023-03-01T10:09:35;4.40;58.10
16116;DHT22;8162;47.104;15.432;2023-03-01T10:12:40;4.40;58.20
16116;DHT22;8162;47.104;15.432;2023-03-01T10:15:59;4.50;58.20
16116;DHT22;8162;47.104;15.432;2023-03-01T10:19:03;4.50;57.90
16116;DHT22;8162;47.104;15.432;2023-03-01T10:22:20;4.60;57.90
16116;DHT22;8162;47.104;15.432;2023-03-01T10:31:52;4.70;57.50
16116;DHT22;8162;47.104;15.432;2023-03-01T10:34:53;4.70;58.60
16116;DHT22;8162;47.104;15.432;2023-03-01T10:38:09;4.70;57.60
16116;DHT22;8162;47.104;15.432;2023-03-01T10:41:10;4.70;58.30
16116;DHT22;8162;47.104;15.432;2023-03-01T10:44:44;4.70;58.40
16116;DHT22;8162;47.104;15.432;2023-03-01T10:47:45;4.70;58.20
16116;DHT22;8162;47.104;15.432;2023-03-01T10:50:48;4.70;59.40
16116;DHT22;8162;47.104;15.432;2023-03-01T10:53:49;4.50;59.60
16116;DHT22;8162;47.104;15.432;2023-03-01T10:56:54;4.50;60.80
16116;DHT22;8162;47.104;15.432;2023-03-01T11:03:28;4.30;61.30
16116;DHT22;8162;47.104;15.432;2023-03-01T11:06:28;4.30;62.10
16116;DHT22;8162;47.104;15.432;2023-03-01T11:09:33;4.40;62.10
16116;DHT22;8162;47.104;15.432;2023-03-01T11:12:40;4.20;62.70
16116;DHT22;8162;47.104;15.432;2023-03-01T11:15:41;4.20;63.70
16116;DHT22;8162;47.104;15.432;2023-03-01T11:18:42;4.20;66.60
16116;DHT22;8162;47.104;15.432;2023-03-01T11:22:17;4.20;66.70
16116;DHT22;8162;47.104;15.432;2023-03-01T11:25:24;4.00;68.70
16116;DHT22;8162;47.104;15.432;2023-03-01T11:28:28;4.00;68.40
16116;DHT22;8162;47.104;15.432;2023-03-01T11:31:30;4.00;68.80
16116;DHT22;8162;47.104;15.432;2023-03-01T11:35:01;4.10;68.20
16116;DHT22;8162;47.104;15.432;2023-03-01T11:38:04;4.20;68.60
16116;DHT22;8162;47.104;15.432;2023-03-01T11:41:42;4.40;67.80
16116;DHT22;8162;47.104;15.432;2023-03-01T11:44:46;4.60;67.40
16116;DHT22;8162;47.104;15.432;2023-03-01T11:48:13;4.90;66.70
16116;DHT22;8162;47.104;15.432;2023-03-01T11:51:44;5.10;64.70
16116;DHT22;8162;47.104;15.432;2023-03-01T11:58:14;5.30;63.10
16116;DHT22;8162;47.104;15.432;2023-03-01T12:05:05;5.50;59.80
16116;DHT22;8162;47.104;15.432;2023-03-01T12:08:25;5.50;59.80
16116;DHT22;8162;47.104;15.432;2023-03-01T12:15:06;5.60;59.30
16116;DHT22;8162;47.104;15.432;2023-03-01T12:28:18;5.80;57.10
16116;DHT22;8162;47.104;15.432;2023-03-01T12:31:44;6.00;57.40
16116;DHT22;8162;47.104;15.432;2023-03-01T12:35:03;6.00;57.00
16116;DHT22;8162;47.104;15.432;2023-03-01T12:45:32;6.30;56.00
16116;DHT22;8162;47.104;15.432;2023-03-01T12:48:57;6.20;56.10
16116;DHT22;8162;47.104;15.432;2023-03-01T12:52:16;6.30;56.10
16116;DHT22;8162;47.104;15.432;2023-03-01T12:58:42;6.60;55.10
16116;DHT22;8162;47.104;15.432;2023-03-01T13:11:34;6.70;55.20
16116;DHT22;8162;47.104;15.432;2023-03-01T13:14:35;6.80;55.90
16116;DHT22;8162;47.104;15.432;2023-03-01T13:17:43;6.90;55.50
16116;DHT22;8162;47.104;15.432;2023-03-01T13:23:47;7.00;56.40
16116;DHT22;8162;47.104;15.432;2023-03-01T13:36:48;7.20;56.30
16116;DHT22;8162;47.104;15.432;2023-03-01T13:39:49;7.10;57.30
16116;DHT22;8162;47.104;15.432;2023-03-01T13:42:52;7.20;56.80
16116;DHT22;8162;47.104;15.432;2023-03-01T13:45:53;7.20;56.60
16116;DHT22;8162;47.104;15.432;2023-03-01T13:48:56;7.20;56.50
16116;DHT22;8162;47.104;15.432;2023-03-01T13:51:57;7.30;56.00
16116;DHT22;8162;47.104;15.432;2023-03-01T13:54:59;7.30;56.00
16116;DHT22;8162;47.104;15.432;2023-03-01T13:58:03;7.30;54.70
16116;DHT22;8162;47.104;15.432;2023-03-01T14:01:06;7.20;54.70
16116;DHT22;8162;47.104;15.432;2023-03-01T14:04:24;7.00;55.60
16116;DHT22;8162;47.104;15.432;2023-03-01T14:07:27;7.00;56.60
16116;DHT22;8162;47.104;15.432;2023-03-01T14:10:49;6.90;56.50
16116;DHT22;8162;47.104;15.432;2023-03-01T14:20:30;6.80;57.30
16116;DHT22;8162;47.104;15.432;2023-03-01T14:23:32;6.80;57.40
16116;DHT22;8162;47.104;15.432;2023-03-01T14:26:36;6.80;57.70
16116;DHT22;8162;47.104;15.432;2023-03-01T14:29:39;6.80;58.00
16116;DHT22;8162;47.104;15.432;2023-03-01T14:32:40;6.90;57.90
16116;DHT22;8162;47.104;15.432;2023-03-01T14:35:40;7.00;58.00
16116;DHT22;8162;47.104;15.432;2023-03-01T14:38:47;7.00;58.20
16116;DHT22;8162;47.104;15.432;2023-03-01T14:41:48;6.90;58.90
16116;DHT22;8162;47.104;15.432;2023-03-01T14:44:50;6.90;59.30
16116;DHT22;8162;47.104;15.432;2023-03-01T14:47:52;6.80;61.20
16116;DHT22;8162;47.104;15.432;2023-03-01T14:50:53;6.70;63.00
16116;DHT22;8162;47.104;15.432;2023-03-01T14:53:54;6.50;64.50
16116;DHT22;8162;47.104;15.432;2023-03-01T14:57:00;6.40;65.20
16116;DHT22;8162;47.104;15.432;2023-03-01T15:00:05;6.30;66.80
16116;DHT22;8162;47.104;15.432;2023-03-01T15:03:19;6.20;68.60
16116;DHT22;8162;47.104;15.432;2023-03-01T15:06:22;6.10;70.20
16116;DHT22;8162;47.104;15.432;2023-03-01T15:09:23;5.90;70.60
16116;DHT22;8162;47.104;15.432;2023-03-01T15:12:44;5.90;69.80
16116;DHT22;8162;47.104;15.432;2023-03-01T15:15:46;5.70;71.20
16116;DHT22;8162;47.104;15.432;2023-03-01T15:19:15;5.50;72.10
16116;DHT22;8162;47.104;15.432;2023-03-01T15:22:15;5.40;72.10
16116;DHT22;8162;47.104;15.432;2023-03-01T15:25:22;5.30;72.10
16116;DHT22;8162;47.104;15.432;2023-03-01T15:28:26;5.20;73.10
16116;DHT22;8162;47.104;15.432;2023-03-01T15:31:34;5.10;73.60
16116;DHT22;8162;47.104;15.432;2023-03-01T15:34:37;5.10;75.90
16116;DHT22;8162;47.104;15.432;2023-03-01T15:40:49;5.00;77.10
16116;DHT22;8162;47.104;15.432;2023-03-01T15:43:50;5.00;77.60
16116;DHT22;8162;47.104;15.432;2023-03-01T15:46:54;5.00;78.40
16116;DHT22;8162;47.104;15.432;2023-03-01T15:49:55;5.00;78.70
16116;DHT22;8162;47.104;15.432;2023-03-01T15:52:59;4.90;79.70
16116;DHT22;8162;47.104;15.432;2023-03-01T15:56:00;4.90;80.00
16116;DHT22;8162;47.104;15.432;2023-03-01T15:59:02;4.80;80.60
16116;DHT22;8162;47.104;15.432;2023-03-01T16:02:09;4.70;80.70
16116;DHT22;8162;47.104;15.432;2023-03-01T16:05:23;4.70;80.70
16116;DHT22;8162;47.104;15.432;2023-03-01T16:08:24;4.70;81.40
16116;DHT22;8162;47.104;15.432;2023-03-01T16:11:25;4.70;81.60
16116;DHT22;8162;47.104;15.432;2023-03-01T16:14:26;4.60;81.90
16116;DHT22;8162;47.104;15.432;2023-03-01T16:17:27;4.50;82.30
16116;DHT22;8162;47.104;15.432;2023-03-01T16:20:29;4.50;82.80
16116;DHT22;8162;47.104;15.432;2023-03-01T16:23:30;4.50;82.20
16116;DHT22;8162;47.104;15.432;2023-03-01T16:26:31;4.50;82.40
16116;DHT22;8162;47.104;15.432;2023-03-01T16:29:32;4.50;82.80
16116;DHT22;8162;47.104;15.432;2023-03-01T16:32:33;4.50;83.40
16116;DHT22;8162;47.104;15.432;2023-03-01T16:35:39;4.50;84.30
16116;DHT22;8162;47.104;15.432;2023-03-01T16:38:40;4.50;84.80
16116;DHT22;8162;47.104;15.432;2023-03-01T16:41:40;4.50;84.90
16116;DHT22;8162;47.104;15.432;2023-03-01T16:44:41;4.40;85.30
16116;DHT22;8162;47.104;15.432;2023-03-01T16:47:42;4.40;85.40
16116;DHT22;8162;47.104;15.432;2023-03-01T16:50:44;4.40;85.50
16116;DHT22;8162;47.104;15.432;2023-03-01T16:53:45;4.40;85.50
16116;DHT22;8162;47.104;15.432;2023-03-01T16:56:45;4.40;84.60
16116;DHT22;8162;47.104;15.432;2023-03-01T16:59:46;4.30;84.60
16116;DHT22;8162;47.104;15.432;2023-03-01T17:02:47;4.30;84.80
16116;DHT22;8162;47.104;15.432;2023-03-01T17:05:49;4.30;85.00
16116;DHT22;8162;47.104;15.432;2023-03-01T17:08:50;4.30;85.00
16116;DHT22;8162;47.104;15.432;2023-03-01T17:11:51;4.30;85.10
16116;DHT22;8162;47.104;15.432;2023-03-01T17:14:52;4.20;86.00
16116;DHT22;8162;47.104;15.432;2023-03-01T17:17:53;4.20;86.20
16116;DHT22;8162;47.104;15.432;2023-03-01T17:20:54;4.20;86.10
16116;DHT22;8162;47.104;15.432;2023-03-01T17:23:56;4.20;86.00
16116;DHT22;8162;47.104;15.432;2023-03-01T17:26:57;4.10;86.20
16116;DHT22;8162;47.104;15.432;2023-03-01T17:29:58;4.10;86.10
16116;DHT22;8162;47.104;15.432;2023-03-01T17:33:00;4.10;85.80
16116;DHT22;8162;47.104;15.432;2023-03-01T17:36:01;4.10;86.20
16116;DHT22;8162;47.104;15.432;2023-03-01T17:39:02;4.10;86.50
16116;DHT22;8162;47.104;15.432;2023-03-01T17:42:04;4.10;86.80
16116;DHT22;8162;47.104;15.432;2023-03-01T17:45:07;4.10;86.80
16116;DHT22;8162;47.104;15.432;2023-03-01T17:48:08;4.10;86.70
16116;DHT22;8162;47.104;15.432;2023-03-01T17:51:10;4.00;86.90
16116;DHT22;8162;47.104;15.432;2023-03-01T17:54:11;4.00;86.90
16116;DHT22;8162;47.104;15.432;2023-03-01T17:57:13;4.00;86.90
16116;DHT22;8162;47.104;15.432;2023-03-01T18:00:16;4.00;87.20
16116;DHT22;8162;47.104;15.432;2023-03-01T18:03:17;4.00;87.40
16116;DHT22;8162;47.104;15.432;2023-03-01T18:06:26;4.00;87.60
16116;DHT22;8162;47.104;15.432;2023-03-01T18:09:27;3.90;88.30
16116;DHT22;8162;47.104;15.432;2023-03-01T18:12:30;3.90;88.70
16116;DHT22;8162;47.104;15.432;2023-03-01T18:15:33;3.90;88.70
16116;DHT22;8162;47.104;15.432;2023-03-01T18:18:35;3.90;88.90
16116;DHT22;8162;47.104;15.432;2023-03-01T18:21:35;3.90;88.80
16116;DHT22;8162;47.104;15.432;2023-03-01T18:24:36;3.90;88.80
16116;DHT22;8162;47.104;15.432;2023-03-01T18:27:38;3.90;88.30
16116;DHT22;8162;47.104;15.432;2023-03-01T18:30:40;3.90;88.40
16116;DHT22;8162;47.104;15.432;2023-03-01T18:33:41;3.90;88.30
16116;DHT22;8162;47.104;15.432;2023-03-01T18:36:42;3.90;88.60
16116;DHT22;8162;47.104;15.432;2023-03-01T18:39:43;3.80;88.70
16116;DHT22;8162;47.104;15.432;2023-03-01T18:42:44;3.90;89.40
16116;DHT22;8162;47.104;15.432;2023-03-01T18:45:45;3.90;89.90
16116;DHT22;8162;47.104;15.432;2023-03-01T18:48:46;3.80;90.20
16116;DHT22;8162;47.104;15.432;2023-03-01T18:51:47;3.90;90.00
16116;DHT22;8162;47.104;15.432;2023-03-01T18:54:50;3.90;90.10
16116;DHT22;8162;47.104;15.432;2023-03-01T18:57:51;3.90;89.70
16116;DHT22;8162;47.104;15.432;2023-03-01T19:00:52;3.90;89.80
16116;DHT22;8162;47.104;15.432;2023-03-01T19:03:54;3.90;89.90
16116;DHT22;8162;47.104;15.432;2023-03-01T19:06:58;3.90;89.70
16116;DHT22;8162;47.104;15.432;2023-03-01T19:10:01;3.90;89.60
16116;DHT22;8162;47.104;15.432;2023-03-01T19:13:03;3.90;89.50
16116;DHT22;8162;47.104;15.432;2023-03-01T19:16:15;3.90;89.20
16116;DHT22;8162;47.104;15.432;2023-03-01T19:19:18;3.90;88.90
16116;DHT22;8162;47.104;15.432;2023-03-01T19:22:20;3.90;88.90
16116;DHT22;8162;47.104;15.432;2023-03-01T19:25:21;3.90;88.80
16116;DHT22;8162;47.104;15.432;2023-03-01T19:28:22;3.90;88.80
16116;DHT22;8162;47.104;15.432;2023-03-01T19:31:25;3.90;88.90
16116;DHT22;8162;47.104;15.432;2023-03-01T19:34:28;3.90;89.00
16116;DHT22;8162;47.104;15.432;2023-03-01T19:37:29;3.90;89.20
16116;DHT22;8162;47.104;15.432;2023-03-01T19:40:35;3.90;89.40
16116;DHT22;8162;47.104;15.432;2023-03-01T19:43:37;3.90;89.00
16116;DHT22;8162;47.104;15.432;2023-03-01T19:46:39;3.90;89.20
16116;DHT22;8162;47.104;15.432;2023-03-01T19:49:40;3.90;89.30
16116;DHT22;8162;47.104;15.432;2023-03-01T19:52:42;3.90;89.50
16116;DHT22;8162;47.104;15.432;2023-03-01T19:55:45;3.90;89.50
16116;DHT22;8162;47.104;15.432;2023-03-01T19:58:46;3.90;89.60
16116;DHT22;8162;47.104;15.432;2023-03-01T20:01:50;3.90;89.40
16116;DHT22;8162;47.104;15.432;2023-03-01T20:04:52;3.90;89.10
16116;DHT22;8162;47.104;15.432;2023-03-01T20:07:56;3.90;88.90
16116;DHT22;8162;47.104;15.432;2023-03-01T20:11:03;3.90;89.20
16116;DHT22;8162;47.104;15.432;2023-03-01T20:14:05;3.90;89.60
16116;DHT22;8162;47.104;15.432;2023-03-01T20:17:08;3.90;89.70
16116;DHT22;8162;47.104;15.432;2023-03-01T20:20:10;3.90;89.80
16116;DHT22;8162;47.104;15.432;2023-03-01T20:23:12;3.90;89.80
16116;DHT22;8162;47.104;15.432;2023-03-01T20:26:14;3.90;89.60
16116;DHT22;8162;47.104;15.432;2023-03-01T20:29:18;3.90;89.90
16116;DHT22;8162;47.104;15.432;2023-03-01T20:32:19;3.90;89.80
16116;DHT22;8162;47.104;15.432;2023-03-01T20:35:20;3.90;89.80
16116;DHT22;8162;47.104;15.432;2023-03-01T20:38:21;3.90;89.80
16116;DHT22;8162;47.104;15.432;2023-03-01T20:41:23;3.90;89.70
16116;DHT22;8162;47.104;15.432;2023-03-01T20:44:26;3.90;89.80
16116;DHT22;8162;47.104;15.432;2023-03-01T20:47:27;3.90;89.50
16116;DHT22;8162;47.104;15.432;2023-03-01T20:50:28;3.90;89.70
16116;DHT22;8162;47.104;15.432;2023-03-01T20:53:29;3.90;89.50
16116;DHT22;8162;47.104;15.432;2023-03-01T20:56:30;3.90;89.90
16116;DHT22;8162;47.104;15.432;2023-03-01T20:59:31;3.90;90.10
16116;DHT22;8162;47.104;15.432;2023-03-01T21:02:34;3.80;90.30
16116;DHT22;8162;47.104;15.432;2023-03-01T21:05:35;3.70;90.60
16116;DHT22;8162;47.104;15.432;2023-03-01T21:08:37;3.70;90.90
16116;DHT22;8162;47.104;15.432;2023-03-01T21:11:38;3.70;91.10
16116;DHT22;8162;47.104;15.432;2023-03-01T21:14:39;3.60;91.40